Time;durP1;ratioP1;P1;durP2;ratioP2;P2;SDS_P1;SDS_P2;PMS_P1;PMS_P2;Temp;Humidity;BMP_temperature;BMP_pressure;BME280_temperature;BME280_humidity;BME280_pressure;Samples;Min_cycle;Max_cycle;Signal;HPM_P1;HPM_P2
2023/02/10 00:01:07;;;;;;;37.00;15.55;;;;;;;0.22;97.12;103816.06;6103524;19;20642;-74
2023/02/10 00:03:12;;;;;;;45.08;15.02;;;;;;;0.21;96.74;103815.19;6104162;19;20010;-75
2023/02/10 00:05:17;;;;;;;38.28;15.00;;;;;;;0.22;96.82;103818.66;6102292;19;20434;-75
2023/02/10 00:07:22;;;;;;;31.23;14.25;;;;;;;0.24;96.86;103813.53;6103349;19;20589;-75
2023/02/10 00:09:27;;;;;;;33.10;15.15;;;;;;;0.27;96.79;103813.72;6102589;19;20019;-76
2023/02/10 00:13:52;;;;;;;41.85;14.95;;;;;;;0.44;97.18;103803.38;6102319;19;20074;-74
2023/02/10 00:16:00;;;;;;;36.67;14.40;;;;;;;0.40;96.64;103806.63;6100500;19;20006;-74
2023/02/10 00:18:05;;;;;;;43.30;15.82;;;;;;;0.41;96.85;103803.22;6101693;19;20015;-75
2023/02/10 00:20:11;;;;;;;38.15;15.23;;;;;;;0.44;96.81;103799.91;6099149;19;20014;-75
2023/02/10 00:22:19;;;;;;;36.88;14.00;;;;;;;0.47;96.86;103805.22;6101735;19;20033;-74
2023/02/10 00:24:25;;;;;;;43.40;16.45;;;;;;;0.50;96.57;103802.81;6101938;19;20010;-74
2023/02/10 00:26:30;;;;;;;49.40;16.90;;;;;;;0.52;96.95;103797.69;6103092;19;20014;-75
2023/02/10 00:28:37;;;;;;;45.65;16.65;;;;;;;0.54;96.65;103798.66;6100250;19;20010;-75
2023/02/10 00:30:44;;;;;;;46.33;17.13;;;;;;;0.58;96.40;103795.38;6101203;19;20448;-75
2023/02/10 00:32:49;;;;;;;51.05;17.20;;;;;;;0.58;96.61;103785.97;6072871;19;20018;-76
2023/02/10 00:34:57;;;;;;;40.53;15.93;;;;;;;0.54;96.49;103783.13;6099449;19;20039;-75
2023/02/10 00:37:02;;;;;;;47.42;17.38;;;;;;;0.48;96.32;103777.69;6100300;19;20011;-75
2023/02/10 00:39:09;;;;;;;49.10;16.83;;;;;;;0.49;96.31;103784.63;6100426;19;20342;-76
2023/02/10 00:41:16;;;;;;;53.58;18.08;;;;;;;0.47;96.57;103787.13;6098287;19;20438;-75
2023/02/10 00:43:21;;;;;;;36.30;15.38;;;;;;;0.35;96.38;103784.81;6102020;19;20021;-76
2023/02/10 00:45:29;;;;;;;36.88;14.88;;;;;;;0.35;96.58;103787.41;6100371;19;20007;-75
2023/02/10 00:47:39;;;;;;;47.10;16.77;;;;;;;0.36;96.67;103783.13;6096636;19;20023;-74
2023/02/10 00:49:44;;;;;;;55.42;17.88;;;;;;;0.30;96.61;103782.84;6094993;19;20249;-75
2023/02/10 00:51:52;;;;;;;42.75;17.77;;;;;;;0.26;96.62;103786.06;6098146;19;20127;-74
2023/02/10 00:53:59;;;;;;;49.75;17.40;;;;;;;0.19;96.79;103790.94;6098164;19;20098;-75
2023/02/10 00:56:05;;;;;;;43.03;16.63;;;;;;;0.13;96.50;103792.31;6100560;19;20079;-75
2023/02/10 00:58:10;;;;;;;45.03;15.90;;;;;;;0.04;96.26;103789.28;6098346;19;20018;-74
2023/02/10 01:00:19;;;;;;;48.13;18.95;;;;;;;0.12;96.94;103800.91;6099258;19;20006;-74
2023/02/10 01:02:24;;;;;;;44.92;17.08;;;;;;;-0.02;96.48;103800.22;6099516;19;20403;-74
2023/02/10 01:04:32;;;;;;;45.90;18.40;;;;;;;-0.06;96.50;103804.31;6100293;19;20021;-77
2023/02/10 01:06:37;;;;;;;46.40;19.15;;;;;;;-0.04;97.09;103804.41;6100446;19;20010;-76
2023/02/10 01:08:42;;;;;;;51.13;19.40;;;;;;;-0.04;97.10;103796.66;6098468;19;20019;-74
2023/02/10 01:10:47;;;;;;;57.72;18.98;;;;;;;-0.10;96.89;103796.34;6096868;19;20055;-74
2023/02/10 01:12:52;;;;;;;49.00;17.10;;;;;;;-0.14;96.95;103790.13;6098171;19;20049;-75
2023/02/10 01:14:58;;;;;;;58.45;20.40;;;;;;;-0.13;97.19;103796.16;6098994;19;20017;-75
2023/02/10 01:17:03;;;;;;;58.70;21.77;;;;;;;-0.13;97.31;103803.91;6098367;19;20019;-74
2023/02/10 01:19:13;;;;;;;46.13;18.17;;;;;;;-0.25;96.90;103806.78;6098523;19;20022;-74
2023/02/10 01:21:23;;;;;;;51.15;17.27;;;;;;;-0.36;96.54;103808.81;6097815;19;20029;-75
2023/02/10 01:23:28;;;;;;;52.47;19.83;;;;;;;-0.42;96.39;103807.59;6099222;19;20015;-75
2023/02/10 01:25:34;;;;;;;50.53;18.42;;;;;;;-0.44;96.79;103810.09;6099739;19;20028;-75
2023/02/10 01:27:40;;;;;;;46.17;16.65;;;;;;;-0.52;96.57;103812.28;6101280;19;20106;-75
2023/02/10 01:29:45;;;;;;;52.47;18.88;;;;;;;-0.51;96.76;103814.03;6103384;19;20516;-75
2023/02/10 01:31:50;;;;;;;63.53;20.17;;;;;;;-0.52;97.24;103807.13;6099579;19;20559;-75
2023/02/10 01:33:58;;;;;;;53.75;19.40;;;;;;;-0.59;96.57;103810.16;6101634;19;20007;-76
2023/02/10 01:36:06;;;;;;;50.72;18.75;;;;;;;-0.63;96.75;103812.50;6103078;19;20018;-76
2023/02/10 01:38:13;;;;;;;42.42;16.75;;;;;;;-0.67;96.82;103824.38;6073574;19;20047;-77
2023/02/10 01:40:19;;;;;;;42.05;18.00;;;;;;;-0.59;97.31;103828.25;6097401;19;20087;-76
2023/02/10 01:42:24;;;;;;;51.03;18.52;;;;;;;-0.73;96.82;103821.47;6101373;19;20026;-76
2023/02/10 01:45:15;;;;;;;55.78;18.58;;;;;;;-0.67;97.72;103822.66;6099828;19;20102;-75
2023/02/10 01:47:22;;;;;;;61.80;21.88;;;;;;;-0.64;97.41;103815.91;6100034;19;20006;-76
2023/02/10 01:49:31;;;;;;;48.22;17.92;;;;;;;-0.78;97.07;103838.41;6105269;19;20040;-74
2023/02/10 01:51:40;;;;;;;50.47;19.42;;;;;;;-0.77;97.31;103830.72;6108453;19;20006;-75
2023/02/10 01:53:48;;;;;;;43.88;17.52;;;;;;;-0.95;96.50;103837.47;6105544;19;20176;-75
2023/02/10 01:55:57;;;;;;;46.13;17.33;;;;;;;-1.05;96.16;103843.81;6107888;19;20011;-76
2023/02/10 01:58:05;;;;;;;52.58;18.77;;;;;;;-1.07;96.29;103840.25;6107623;19;21327;-75
2023/02/10 02:00:11;;;;;;;49.50;17.67;;;;;;;-1.14;96.08;103826.09;6110473;19;20017;-75
2023/02/10 02:02:20;;;;;;;50.33;18.52;;;;;;;-1.00;97.38;103824.31;6107178;19;20017;-75
2023/02/10 02:04:26;;;;;;;61.60;19.45;;;;;;;-0.96;97.48;103834.00;6106698;19;20047;-75
2023/02/10 02:06:31;;;;;;;59.88;19.85;;;;;;;-1.03;97.32;103826.69;6106779;19;20034;-75
2023/02/10 02:08:40;;;;;;;54.08;18.42;;;;;;;-1.14;96.78;103825.22;6106084;19;20015;-75
2023/02/10 02:11:03;;;;;;;48.65;17.33;;;;;;;-1.12;97.04;103823.63;6108355;19;20006;-76
2023/02/10 02:13:15;;;;;;;55.35;20.23;;;;;;;-0.90;97.94;103818.84;6100451;19;20625;-75
2023/02/10 02:15:26;;;;;;;50.38;18.02;;;;;;;-1.00;97.83;103816.56;6104662;19;20040;-74
2023/02/10 02:17:38;;;;;;;62.55;21.38;;;;;;;-0.74;98.43;103806.75;6107824;19;20447;-75
2023/02/10 02:23:02;;;;;;;64.93;19.13;;;;;;;-0.57;98.71;103813.72;6108294;19;20078;-76
2023/02/10 02:25:31;;;;;;;71.72;21.83;;;;;;;-0.50;98.86;103813.25;6080753;19;20487;-75
2023/02/10 02:27:55;;;;;;;56.40;19.13;;;;;;;-0.36;99.03;103813.09;6104794;19;20014;-74
2023/02/10 02:30:33;;;;;;;66.50;20.60;;;;;;;-0.52;98.65;103814.88;6107760;19;20483;-74
2023/02/10 02:32:46;;;;;;;73.70;24.38;;;;;;;-0.33;98.84;103813.25;6107812;19;20022;-74
2023/02/10 02:34:59;;;;;;;68.60;22.02;;;;;;;-0.48;98.49;103816.78;6104896;19;20016;-74
2023/02/10 02:37:10;;;;;;;64.13;21.03;;;;;;;-0.49;98.52;103825.34;6101152;19;20764;-73
2023/02/10 02:39:15;;;;;;;62.28;19.42;;;;;;;-0.76;97.75;103826.47;6106524;19;21003;-73
2023/02/10 02:41:26;;;;;;;54.88;18.45;;;;;;;-0.93;97.15;103830.69;6104449;19;20018;-76
2023/02/10 02:43:31;;;;;;;52.30;19.50;;;;;;;-1.06;96.77;103839.44;6107062;19;20031;-76
2023/02/10 02:45:52;;;;;;;50.95;17.65;;;;;;;-1.08;96.94;103843.63;6106939;19;20020;-75
2023/02/10 02:48:14;;;;;;;65.53;21.85;;;;;;;-1.00;97.45;103850.13;6106240;19;20376;-75
2023/02/10 02:50:27;;;;;;;60.88;19.67;;;;;;;-1.02;97.43;103853.44;6104797;19;20010;-74
2023/02/10 02:52:43;;;;;;;48.38;17.20;;;;;;;-1.09;97.15;103851.31;6102186;19;20014;-74
2023/02/10 02:54:56;;;;;;;43.00;15.55;;;;;;;-1.12;97.36;103850.31;6105583;19;20011;-74
2023/02/10 02:57:09;;;;;;;57.60;19.10;;;;;;;-1.22;97.01;103840.28;6100760;19;20418;-74
2023/02/10 02:59:18;;;;;;;;;;;;;;;-1.27;96.71;103845.97;6106919;19;20464;-73
2023/02/10 03:01:28;;;;;;;48.28;14.00;;;;;;;-1.36;96.43;103851.53;6105448;19;19922;-73
2023/02/10 03:03:40;;;;;;;66.55;20.02;;;;;;;-1.42;96.75;103844.31;6107802;19;20002;-73
2023/02/10 03:05:45;;;;;;;41.33;17.63;;;;;;;-1.40;96.96;103857.28;6106906;19;20014;-74
2023/02/10 03:07:51;;;;;;;43.50;16.25;;;;;;;-1.43;96.98;103850.25;6107331;19;20018;-74
2023/02/10 03:09:56;;;;;;;51.80;19.05;;;;;;;-1.36;97.50;103851.53;6104695;19;20010;-74
2023/02/10 03:12:03;;;;;;;37.95;17.15;;;;;;;-1.43;97.29;103855.41;6105716;19;20009;-74
2023/02/10 03:14:08;;;;;;;50.92;18.88;;;;;;;-1.42;97.11;103858.88;6105822;19;20027;-74
2023/02/10 03:16:13;;;;;;;67.35;19.75;;;;;;;-1.33;97.58;103862.91;6106196;19;20017;-74
2023/02/10 03:18:18;;;;;;;49.53;18.35;;;;;;;-1.23;97.73;103854.00;6089518;19;20011;-74
2023/02/10 03:20:26;;;;;;;45.30;16.70;;;;;;;-1.16;98.12;103860.38;6105573;19;20014;-74
2023/02/10 03:22:32;;;;;;;48.08;18.15;;;;;;;-1.15;97.96;103857.00;6082050;19;20006;-74
2023/02/10 03:24:40;;;;;;;44.55;15.32;;;;;;;-1.17;98.08;103856.03;6083895;19;20025;-74
2023/02/10 03:26:45;;;;;;;62.13;19.73;;;;;;;-1.13;97.98;103850.25;6104500;19;20397;-74
2023/02/10 03:28:50;;;;;;;50.15;17.27;;;;;;;-1.20;97.72;103851.59;6083075;19;20020;-74
2023/02/10 03:30:55;;;;;;;44.47;17.35;;;;;;;-1.25;97.45;103854.72;6083630;19;20003;-75
2023/02/10 03:33:01;;;;;;;38.63;17.83;;;;;;;-1.26;97.66;103860.66;6104227;19;20006;-75
2023/02/10 03:35:07;;;;;;;53.03;19.27;;;;;;;-1.24;97.73;103864.22;6100158;19;20044;-75
2023/02/10 03:37:15;;;;;;;51.38;20.10;;;;;;;-1.07;98.21;103855.75;6106026;19;20055;-75
2023/02/10 03:39:20;;;;;;;57.35;21.50;;;;;;;-1.00;98.29;103857.88;6104688;19;20043;-75
2023/02/10 03:41:25;;;;;;;57.08;19.20;;;;;;;-0.94;98.63;103862.50;6100613;19;20009;-75
2023/02/10 03:43:30;;;;;;;59.80;18.50;;;;;;;-0.91;98.58;103860.06;6104776;19;20010;-75
2023/02/10 03:45:36;;;;;;;49.47;18.10;;;;;;;-0.92;98.62;103855.72;6101563;19;20051;-76
2023/02/10 03:47:40;;;;;;;40.05;17.02;;;;;;;-1.00;98.42;103854.38;6104483;19;20037;-76
2023/02/10 03:49:45;;;;;;;38.78;16.65;;;;;;;-0.91;98.52;103849.75;6105238;19;20007;-73
2023/02/10 03:51:51;;;;;;;44.88;16.60;;;;;;;-1.03;98.41;103849.94;6105077;19;20029;-74
2023/02/10 03:53:59;;;;;;;43.72;17.35;;;;;;;-0.84;98.79;103850.94;6102466;19;20014;-76
2023/02/10 03:56:04;;;;;;;50.88;18.70;;;;;;;-0.80;98.68;103847.75;6103306;19;20478;-76
2023/02/10 03:58:09;;;;;;;43.95;17.05;;;;;;;-0.91;98.56;103844.56;6102002;19;20064;-76
2023/02/10 04:00:16;;;;;;;53.40;16.00;;;;;;;-0.75;98.71;103844.59;6105422;19;20497;-76
2023/02/10 04:02:21;;;;;;;41.45;16.77;;;;;;;-0.76;98.80;103847.13;6102260;19;20011;-76
2023/02/10 04:04:26;;;;;;;65.65;20.75;;;;;;;-0.61;98.80;103842.75;6105242;19;20585;-75
2023/02/10 04:06:32;;;;;;;54.70;19.85;;;;;;;-0.43;98.95;103845.44;6105153;19;20582;-76
2023/02/10 04:08:39;;;;;;;48.85;19.55;;;;;;;-0.57;98.88;103855.06;6101156;19;20003;-77
2023/02/10 04:10:47;;;;;;;59.72;19.17;;;;;;;-0.56;98.73;103851.66;6104252;19;20081;-76
2023/02/10 04:12:52;;;;;;;79.45;22.58;;;;;;;-0.49;98.84;103852.88;6104259;19;20244;-76
2023/02/10 04:15:00;;;;;;;73.25;24.23;;;;;;;-0.39;99.01;103854.28;6105326;19;20028;-76
2023/02/10 04:17:05;;;;;;;57.92;20.83;;;;;;;-0.41;98.79;103855.88;6099108;19;20420;-74
2023/02/10 04:19:10;;;;;;;77.95;21.27;;;;;;;-0.33;99.10;103859.75;6104890;19;20053;-74
2023/02/10 04:21:15;;;;;;;70.13;22.67;;;;;;;-0.45;98.93;103860.88;6100387;19;20094;-74
2023/02/10 04:23:20;;;;;;;73.32;23.33;;;;;;;-0.46;99.04;103865.97;6104233;19;20007;-74
2023/02/10 04:25:28;;;;;;;72.70;22.00;;;;;;;-0.41;99.28;103866.22;6105596;19;20034;-75
2023/02/10 04:27:40;;;;;;;87.60;26.17;;;;;;;-0.37;99.04;103860.38;6103947;19;20353;-76
2023/02/10 04:29:45;;;;;;;70.13;23.33;;;;;;;-0.48;98.96;103859.81;6103371;19;20011;-75
2023/02/10 04:31:50;;;;;;;78.03;24.73;;;;;;;-0.48;99.12;103865.88;6102837;19;20051;-75
2023/02/10 04:33:55;;;;;;;92.18;27.67;;;;;;;-0.38;99.10;103864.66;6103173;19;20033;-75
2023/02/10 04:36:02;;;;;;;75.88;24.83;;;;;;;-0.39;99.30;103860.31;6102850;19;20021;-74
2023/02/10 04:38:10;;;;;;;80.25;26.80;;;;;;;-0.42;99.22;103869.59;6102719;19;19999;-75
2023/02/10 04:40:15;;;;;;;72.95;23.60;;;;;;;-0.50;99.29;103864.00;6101625;19;20007;-75
2023/02/10 04:42:29;;;;;;;71.50;25.73;;;;;;;-0.45;99.44;103855.72;6102633;19;20003;-74
2023/02/10 04:44:40;;;;;;;68.70;25.33;;;;;;;-0.52;99.28;103852.72;6104164;19;20340;-74
2023/02/10 04:46:45;;;;;;;81.88;26.83;;;;;;;-0.34;99.53;103850.22;6102220;19;20121;-77
2023/02/10 04:48:50;;;;;;;69.05;24.15;;;;;;;-0.41;99.47;103850.72;6102180;19;20022;-75
2023/02/10 04:50:55;;;;;;;76.75;24.38;;;;;;;-0.40;99.47;103847.31;6103459;19;20026;-75
2023/02/10 04:53:01;;;;;;;76.72;26.92;;;;;;;-0.48;99.40;103860.69;6101298;19;20015;-74
2023/02/10 04:55:06;;;;;;;93.53;29.67;;;;;;;-0.35;99.58;103862.25;6102639;19;20027;-74
2023/02/10 04:57:11;;;;;;;81.95;27.55;;;;;;;-0.37;99.62;103860.38;6099819;19;20052;-76
2023/02/10 04:59:19;;;;;;;67.80;25.45;;;;;;;-0.36;99.67;103864.78;6104183;19;20013;-76
2023/02/10 05:01:26;;;;;;;83.47;28.88;;;;;;;-0.28;99.58;103858.31;6103736;19;20018;-76
2023/02/10 05:03:31;;;;;;;73.43;27.00;;;;;;;-0.33;99.71;103852.00;6102301;19;20026;-76
2023/02/10 05:05:40;;;;;;;74.40;26.13;;;;;;;-0.25;99.49;103851.59;6102779;19;20007;-75
2023/02/10 05:07:45;;;;;;;81.15;27.42;;;;;;;-0.19;99.74;103852.72;6080246;19;20007;-75
2023/02/10 05:09:50;;;;;;;84.13;29.33;;;;;;;-0.34;99.72;103853.72;6080264;19;20023;-76
2023/02/10 05:11:55;;;;;;;57.40;23.00;;;;;;;-0.35;99.66;103861.38;6100559;19;20692;-76
2023/02/10 05:14:00;;;;;;;77.45;25.38;;;;;;;-0.30;99.84;103850.47;6098476;19;20014;-77
2023/02/10 05:16:07;;;;;;;62.78;22.67;;;;;;;-0.31;99.85;103855.56;6080915;19;20543;-76
2023/02/10 05:18:15;;;;;;;69.95;23.83;;;;;;;-0.33;99.84;103855.47;6104035;19;20115;-75
2023/02/10 05:20:20;;;;;;;74.88;25.65;;;;;;;-0.28;99.80;103847.97;6100715;19;20014;-76
2023/02/10 05:22:29;;;;;;;77.28;27.65;;;;;;;-0.39;99.82;103843.94;6108971;19;20017;-76
2023/02/10 05:24:37;;;;;;;71.55;25.60;;;;;;;-0.33;99.97;103847.72;6084846;19;20522;-76
2023/02/10 05:26:42;;;;;;;68.30;25.88;;;;;;;-0.33;99.86;103841.66;6090039;19;20028;-75
2023/02/10 05:28:47;;;;;;;71.50;26.58;;;;;;;-0.35;99.74;103851.91;6105393;19;20015;-74
2023/02/10 05:30:52;;;;;;;72.40;27.60;;;;;;;-0.27;99.85;103860.94;6107122;19;20585;-75
2023/02/10 05:32:59;;;;;;;69.90;25.23;;;;;;;-0.29;99.82;103859.09;6109110;19;20014;-75
2023/02/10 05:35:08;;;;;;;59.60;23.23;;;;;;;-0.28;99.86;103863.47;6109336;19;20020;-75
2023/02/10 05:37:13;;;;;;;62.13;22.48;;;;;;;-0.22;99.94;103858.63;6105091;19;20702;-74
2023/02/10 05:39:27;;;;;;;58.53;22.50;;;;;;;-0.26;99.82;103851.53;6107728;19;20459;-75
2023/02/10 05:41:32;;;;;;;52.00;20.48;;;;;;;-0.36;99.86;103844.97;6109502;19;20010;-75
2023/02/10 05:43:40;;;;;;;63.13;23.15;;;;;;;-0.26;99.93;103841.19;6107839;19;20007;-74
2023/02/10 05:45:47;;;;;;;60.30;22.67;;;;;;;-0.33;99.93;103833.91;6111596;19;20011;-73
2023/02/10 05:47:53;;;;;;;63.45;24.80;;;;;;;-0.33;99.76;103829.63;6110699;19;20006;-74
2023/02/10 05:50:00;;;;;;;59.08;25.65;;;;;;;-0.42;99.85;103823.09;6111250;19;20144;-75
2023/02/10 05:52:08;;;;;;;48.63;20.80;;;;;;;-0.39;99.79;103823.28;6109836;19;19998;-76
2023/02/10 05:54:14;;;;;;;60.00;23.52;;;;;;;-0.41;99.77;103828.34;6110739;19;20007;-75
2023/02/10 05:56:19;;;;;;;38.65;19.13;;;;;;;-0.41;99.70;103830.03;6110610;19;20608;-75
2023/02/10 05:58:23;;;;;;;55.58;23.35;;;;;;;-0.37;99.70;103830.28;6108023;19;20114;-74
2023/02/10 06:00:29;;;;;;;56.50;20.67;;;;;;;-0.39;99.73;103831.91;6110132;19;20022;-75
2023/02/10 06:02:35;;;;;;;49.47;20.30;;;;;;;-0.35;99.80;103831.25;6109110;19;20022;-75
2023/02/10 06:04:40;;;;;;;39.28;19.77;;;;;;;-0.40;99.63;103849.91;6111187;19;20050;-75
2023/02/10 06:06:45;;;;;;;48.05;20.00;;;;;;;-0.32;99.74;103851.19;6112085;19;20086;-76
2023/02/10 06:08:52;;;;;;;48.42;20.88;;;;;;;-0.40;99.71;103867.97;6108392;19;20010;-75
2023/02/10 06:10:57;;;;;;;43.55;19.27;;;;;;;-0.45;99.69;103863.47;6107606;19;20405;-75
2023/02/10 06:13:02;;;;;;;40.17;19.60;;;;;;;-0.48;99.68;103864.97;6105736;19;20014;-74
2023/02/10 06:15:09;;;;;;;40.63;19.45;;;;;;;-0.55;99.63;103863.78;6106747;19;20019;-74
2023/02/10 06:17:13;;;;;;;41.60;17.98;;;;;;;-0.51;99.82;103860.53;6104784;19;20012;-74
2023/02/10 06:19:18;;;;;;;42.28;18.17;;;;;;;-0.53;99.74;103856.09;6108073;19;20018;-74
2023/02/10 06:21:27;;;;;;;47.83;19.67;;;;;;;-0.46;99.75;103859.09;6106769;19;20014;-74
2023/02/10 06:23:32;;;;;;;47.65;17.95;;;;;;;-0.59;99.63;103872.16;6105222;19;20037;-75
2023/02/10 06:25:43;;;;;;;45.83;19.38;;;;;;;-0.62;99.62;103866.81;6106475;19;20223;-75
2023/02/10 06:27:48;;;;;;;48.80;20.05;;;;;;;-0.67;99.57;103865.69;6103168;19;20488;-74
2023/02/10 06:29:53;;;;;;;36.33;15.52;;;;;;;-0.62;99.67;103877.16;6106170;19;20509;-74
2023/02/10 06:31:58;;;;;;;43.55;18.98;;;;;;;-0.50;99.59;103883.00;6104817;19;20403;-74
2023/02/10 06:34:08;;;;;;;47.72;19.40;;;;;;;-0.45;99.71;103885.81;6103361;19;20063;-75
2023/02/10 06:36:14;;;;;;;45.63;17.45;;;;;;;-0.56;99.58;103898.16;6107219;19;20494;-74
2023/02/10 06:38:19;;;;;;;38.30;17.65;;;;;;;-0.49;99.59;103894.22;6104686;19;20010;-74
2023/02/10 06:40:24;;;;;;;36.70;18.13;;;;;;;-0.55;99.56;103894.78;6105891;19;20011;-74
2023/02/10 06:42:32;;;;;;;41.42;17.02;;;;;;;-0.59;99.43;103900.56;6107774;19;20559;-74
2023/02/10 06:44:38;;;;;;;44.83;18.05;;;;;;;-0.55;99.50;103893.91;6104621;19;20019;-74
2023/02/10 06:46:44;;;;;;;38.30;18.67;;;;;;;-0.45;99.51;103898.72;6083089;19;20088;-74
2023/02/10 06:48:51;;;;;;;40.97;19.10;;;;;;;-0.47;99.18;103898.66;6104390;19;20010;-74
2023/02/10 06:50:56;;;;;;;33.78;16.30;;;;;;;-0.43;99.54;103906.56;6107214;19;20007;-74
2023/02/10 06:53:01;;;;;;;41.42;19.60;;;;;;;-0.40;99.44;103899.88;6102455;19;20031;-76
2023/02/10 06:55:08;;;;;;;36.85;19.55;;;;;;;-0.43;99.47;103889.38;6106496;19;20010;-76
2023/02/10 06:57:13;;;;;;;36.33;16.75;;;;;;;-0.52;99.22;103887.19;6105866;19;20515;-75
2023/02/10 06:59:21;;;;;;;34.00;15.18;;;;;;;-0.52;99.18;103875.97;6098739;19;20394;-74
2023/02/10 07:01:26;;;;;;;35.10;16.65;;;;;;;-0.52;99.23;103869.09;6106904;19;20066;-76
2023/02/10 07:03:31;;;;;;;39.38;17.85;;;;;;;-0.47;99.21;103866.78;6105540;19;20014;-75
2023/02/10 07:05:39;;;;;;;33.55;16.05;;;;;;;-0.45;99.14;103867.72;6101113;19;20554;-76
2023/02/10 07:07:44;;;;;;;30.77;16.67;;;;;;;-0.45;99.10;103866.06;6107155;19;20338;-74
2023/02/10 07:09:52;;;;;;;37.60;18.92;;;;;;;-0.37;99.00;103861.31;6104481;19;20002;-75
2023/02/10 07:12:00;;;;;;;33.88;16.52;;;;;;;-0.27;98.98;103867.81;6108164;19;20452;-74
2023/02/10 07:14:05;;;;;;;38.25;19.42;;;;;;;-0.19;99.10;103866.53;6106433;19;20028;-75
2023/02/10 07:16:15;;;;;;;32.65;18.40;;;;;;;-0.26;98.86;103875.66;6101996;19;20014;-74
2023/02/10 07:18:20;;;;;;;32.80;17.20;;;;;;;-0.24;98.84;103878.31;6101429;19;20007;-74
2023/02/10 07:20:27;;;;;;;36.70;17.95;;;;;;;-0.22;98.83;103887.03;6100505;19;20081;-75
2023/02/10 07:22:33;;;;;;;38.25;19.20;;;;;;;-0.22;98.71;103893.09;6101938;19;20051;-75
2023/02/10 07:24:39;;;;;;;34.30;17.33;;;;;;;-0.23;98.83;103893.03;6102675;19;20043;-75
2023/02/10 07:26:44;;;;;;;30.10;18.40;;;;;;;-0.26;98.60;103898.94;6103340;19;20034;-75
2023/02/10 07:28:52;;;;;;;39.33;19.25;;;;;;;-0.27;98.55;103904.00;6103244;19;20007;-75
2023/02/10 07:30:58;;;;;;;42.72;20.85;;;;;;;-0.22;98.77;103915.47;6100303;19;20006;-75
2023/02/10 07:33:05;;;;;;;40.15;19.65;;;;;;;-0.26;98.55;103918.72;6098394;19;20044;-74
2023/02/10 07:35:12;;;;;;;38.22;17.58;;;;;;;-0.29;98.52;103921.13;6101943;19;20522;-75
2023/02/10 07:37:19;;;;;;;34.42;17.40;;;;;;;-0.34;98.54;103914.81;6097519;19;20018;-73
2023/02/10 07:39:26;;;;;;;39.33;18.33;;;;;;;-0.26;98.64;103921.31;6099441;19;20344;-75
2023/02/10 07:41:30;;;;;;;34.65;17.35;;;;;;;-0.29;98.52;103916.84;6101445;19;20099;-76
2023/02/10 07:43:36;;;;;;;40.95;18.63;;;;;;;-0.24;98.27;103911.91;6103970;19;20483;-75
2023/02/10 07:45:41;;;;;;;39.40;19.08;;;;;;;-0.19;98.51;103910.47;6105133;19;20047;-75
2023/02/10 07:47:48;;;;;;;36.13;19.17;;;;;;;-0.13;98.48;103904.72;6106474;19;20012;-75
2023/02/10 07:49:56;;;;;;;36.05;17.65;;;;;;;-0.08;98.48;103913.63;6106185;19;20014;-74
2023/02/10 07:52:01;;;;;;;35.53;17.67;;;;;;;-0.06;98.40;103905.13;6098445;19;20021;-74
2023/02/10 07:54:06;;;;;;;32.72;17.48;;;;;;;0.04;98.31;103913.38;6098666;19;20018;-76
2023/02/10 07:56:11;;;;;;;33.58;17.33;;;;;;;0.05;98.01;103909.97;6098258;19;20078;-75
2023/02/10 07:58:19;;;;;;;39.63;18.25;;;;;;;0.12;98.08;103919.84;6098963;19;20562;-75
2023/02/10 08:00:24;;;;;;;44.47;19.92;;;;;;;0.16;98.02;103919.22;6100486;19;20070;-76
2023/02/10 08:02:29;;;;;;;34.15;16.88;;;;;;;0.16;97.91;103939.91;6101982;19;20007;-75
2023/02/10 08:04:36;;;;;;;42.05;19.90;;;;;;;0.18;97.99;103928.78;6102635;19;20348;-75
2023/02/10 08:06:44;;;;;;;36.10;20.17;;;;;;;0.18;97.98;103930.50;6102391;19;20014;-77
2023/02/10 08:08:52;;;;;;;32.53;16.33;;;;;;;0.16;97.90;103934.72;6104718;19;20010;-76
2023/02/10 08:10:57;;;;;;;42.08;19.98;;;;;;;0.17;97.93;103936.50;6102840;19;20035;-76
2023/02/10 08:13:02;;;;;;;29.60;15.77;;;;;;;0.15;98.04;103941.56;6097830;19;20102;-76
2023/02/10 08:15:09;;;;;;;36.33;18.35;;;;;;;0.11;97.82;103942.25;6100255;19;20436;-76
2023/02/10 08:17:14;;;;;;;33.40;16.65;;;;;;;0.09;97.89;103937.78;6101216;19;20010;-76
2023/02/10 08:19:19;;;;;;;36.80;18.60;;;;;;;0.10;97.85;103934.38;6099740;19;20835;-76
2023/02/10 08:21:25;;;;;;;34.45;17.38;;;;;;;0.08;97.96;103928.22;6093444;19;20642;-75
2023/02/10 08:23:33;;;;;;;39.63;17.55;;;;;;;0.19;98.06;103933.19;6099602;19;20011;-76
2023/02/10 08:25:39;;;;;;;38.63;19.42;;;;;;;0.24;97.86;103928.25;6101233;19;20017;-76
2023/02/10 08:27:46;;;;;;;31.17;16.42;;;;;;;0.24;97.84;103928.25;6098620;19;20006;-75
2023/02/10 08:29:52;;;;;;;33.72;17.02;;;;;;;0.24;97.63;103923.09;6099269;19;20010;-75
2023/02/10 08:32:00;;;;;;;35.83;17.20;;;;;;;0.26;97.64;103925.72;6100707;19;20043;-76
2023/02/10 08:34:05;;;;;;;38.58;18.98;;;;;;;0.34;97.88;103935.69;6098468;19;20398;-76
2023/02/10 08:36:13;;;;;;;40.10;19.38;;;;;;;0.35;97.68;103936.56;6102786;19;20040;-76
2023/02/10 08:38:18;;;;;;;37.90;17.13;;;;;;;0.42;97.52;103946.41;6098913;19;20044;-76
2023/02/10 08:40:25;;;;;;;47.67;18.10;;;;;;;0.52;97.67;103945.19;6100087;19;20466;-76
2023/02/10 08:42:30;;;;;;;38.55;18.52;;;;;;;0.60;97.66;103942.16;6100498;19;20044;-76
2023/02/10 08:44:36;;;;;;;33.75;18.52;;;;;;;0.64;97.31;103931.16;6099648;19;20436;-76
2023/02/10 08:46:41;;;;;;;37.13;18.60;;;;;;;0.64;97.33;103920.81;6098544;19;20006;-76
2023/02/10 08:48:49;;;;;;;38.65;19.52;;;;;;;0.73;96.90;103929.84;6104247;19;20015;-76
2023/02/10 08:50:55;;;;;;;43.53;19.90;;;;;;;0.79;97.15;103931.06;6104471;19;20010;-76
2023/02/10 08:53:02;;;;;;;43.92;18.58;;;;;;;0.80;97.13;103929.34;6098483;19;20013;-77
2023/02/10 08:55:11;;;;;;;42.90;19.77;;;;;;;0.85;96.63;103936.53;6104885;19;20014;-76
2023/02/10 08:57:18;;;;;;;39.80;19.27;;;;;;;0.91;96.92;103932.47;6105671;19;20031;-76
2023/02/10 08:59:23;;;;;;;42.35;19.10;;;;;;;1.00;96.69;103931.22;6104842;19;20031;-75
2023/02/10 09:01:29;;;;;;;50.83;20.20;;;;;;;1.05;96.43;103934.00;6099603;19;20045;-76
2023/02/10 09:03:35;;;;;;;39.95;18.83;;;;;;;1.09;96.47;103931.66;6099662;19;20061;-77
2023/02/10 09:05:41;;;;;;;45.85;19.83;;;;;;;1.11;96.03;103934.34;6100950;19;20007;-77
2023/02/10 09:07:49;;;;;;;38.80;20.35;;;;;;;1.13;96.15;103936.97;6104954;19;20103;-76
2023/02/10 09:09:54;;;;;;;46.55;21.45;;;;;;;1.21;95.91;103925.28;6103364;19;20474;-77
2023/02/10 09:11:59;;;;;;;42.60;18.40;;;;;;;1.25;96.22;103934.97;6102961;19;20374;-76
2023/02/10 09:14:09;;;;;;;45.42;20.00;;;;;;;1.33;95.89;103938.81;6101603;19;20299;-76
2023/02/10 09:16:14;;;;;;;41.17;18.70;;;;;;;1.42;95.92;103936.69;6103886;19;20018;-76
2023/02/10 09:18:19;;;;;;;47.25;18.88;;;;;;;1.54;95.68;103941.53;6102780;19;20018;-76
2023/02/10 09:20:24;;;;;;;36.17;17.63;;;;;;;1.62;95.48;103939.31;6098667;19;20010;-76
2023/02/10 09:22:29;;;;;;;42.83;20.13;;;;;;;1.72;95.35;103937.22;6103470;19;20386;-76
2023/02/10 09:24:36;;;;;;;52.72;21.13;;;;;;;1.76;95.01;103940.81;6100569;19;20444;-77
2023/02/10 09:26:42;;;;;;;44.42;20.48;;;;;;;1.89;94.56;103944.88;6098827;19;20070;-76
2023/02/10 09:28:55;;;;;;;44.10;19.58;;;;;;;2.03;93.88;103948.97;6101677;19;20953;-75
2023/02/10 09:31:03;;;;;;;42.30;17.70;;;;;;;2.12;94.30;103954.56;6103250;19;20010;-76
2023/02/10 09:33:08;;;;;;;37.22;18.35;;;;;;;2.20;93.62;103953.19;6101698;19;20347;-76
2023/02/10 09:35:14;;;;;;;43.72;18.52;;;;;;;2.30;93.21;103951.03;6097878;19;20027;-75
2023/02/10 09:37:19;;;;;;;42.88;20.10;;;;;;;2.35;92.52;103949.53;6099681;19;20366;-75
2023/02/10 09:39:25;;;;;;;46.92;20.02;;;;;;;2.38;91.64;103942.75;6102084;19;20010;-76
2023/02/10 09:41:44;;;;;;;52.35;20.92;;;;;;;2.46;92.31;103943.06;6096247;19;20711;-76
2023/02/10 09:44:00;;;;;;;51.90;20.80;;;;;;;2.60;92.00;103952.31;6099564;19;20019;-76
2023/02/10 09:46:18;;;;;;;43.20;20.25;;;;;;;2.76;91.60;103955.56;6101798;19;20006;-76